Time;durP1;ratioP1;P1;durP2;ratioP2;P2;SDS_P1;SDS_P2;PMS_P1;PMS_P2;Temp;Humidity;BMP_temperature;BMP_pressure;BME280_temperature;BME280_humidity;BME280_pressure;Samples;Min_cycle;Max_cycle;Signal;HPM_P1;HPM_P2
2022/04/25 00:00:05;;;;;;;;;;;;;;;;;;1038096;28;3680;-47
2022/04/25 00:00:36;;;;;;;;;;;;;;;;;;1039772;28;4657;-47
2022/04/25 00:01:10;;;;;;;;;;;;;;;;;;1039282;28;3549;-46
2022/04/25 00:01:40;;;;;;;;;;;;;;;;;;1038116;28;3874;-46
2022/04/25 00:02:11;;;;;;;;;;;;;;;;;;1041141;28;3808;-46
2022/04/25 00:02:41;;;;;;;;;;;;;;;;;;1038619;28;3786;-45
2022/04/25 00:03:11;;;;;;;;;;;;;;;;;;1041163;28;3622;-47
2022/04/25 00:03:43;;;;;;;;;;;;;;;;;;1035889;28;3840;-46
2022/04/25 00:04:13;;;;;;;;;;;;;;;;;;1039640;28;4198;-46
2022/04/25 00:04:43;;;;;;;;;;;;;;;;;;1037852;28;3720;-49
2022/04/25 00:05:14;;;;;;;;;;;;;;;;;;1041918;28;4010;-47
2022/04/25 00:05:44;;;;;;;;;;;;;;;;;;1038611;28;3540;-48
2022/04/25 00:06:14;;;;;;;;;;;;;;;;;;1035775;28;3975;-46
2022/04/25 00:06:44;;;;;;;;;;;;;;;;;;1036252;28;3613;-48
2022/04/25 00:07:16;;;;;;;;;;;;;;;;;;1035582;28;4100;-46
2022/04/25 00:07:46;;;;;;;;;;;;;;;;;;1034528;28;4224;-47
2022/04/25 00:08:16;;;;;;;;;;;;;;;;;;1033990;28;4788;-48
2022/04/25 00:08:47;;;;;;;;;;;;;;;;;;1036061;28;3964;-46
2022/04/25 00:09:17;;;;;;;;;;;;;;;;;;1035289;28;4408;-48
2022/04/25 00:09:47;;;;;;;;;;;;;;;;;;1039851;28;4457;-50
2022/04/25 00:10:17;;;;;;;;;;;;;;;;;;1039962;28;4131;-47
2022/04/25 00:10:47;;;;;;;;;;;;;;;;;;1039056;28;3847;-45
2022/04/25 00:11:18;;;;;;;;;;;;;;;;;;1040896;28;4284;-45
2022/04/25 00:11:48;;;;;;;;;;;;;;;;;;1038523;28;3860;-45
2022/04/25 00:12:24;;;;;;;;;;;;;;;;;;1039104;28;4197;-48
2022/04/25 00:12:56;;;;;;;;;;;;;;;;;;1035188;28;4135;-48
2022/04/25 00:13:26;;;;;;;;;;;;;;;;;;1036759;28;4241;-49
2022/04/25 00:13:56;;;;;;;;;;;;;;;;;;1036555;28;3511;-46
2022/04/25 00:14:26;;;;;;;;;;;;;;;;;;1035844;28;3897;-46
2022/04/25 00:14:57;;;;;;;;;;;;;;;;;;1039625;28;4126;-48
2022/04/25 00:15:27;;;;;;;;;;;;;;;;;;1037931;28;3799;-47
2022/04/25 00:15:57;;;;;;;;;;;;;;;;;;1039782;28;3856;-47
2022/04/25 00:16:27;;;;;;;;;;;;;;;;;;1039781;28;3898;-46
2022/04/25 00:16:58;;;;;;;;;;;;;;;;;;1038752;28;4297;-46
2022/04/25 00:17:29;;;;;;;;;;;;;;;;;;1036401;28;3839;-46
2022/04/25 00:17:59;;;;;;;;;;;;;;;;;;1036207;28;4894;-45
2022/04/25 00:18:36;;;;;;;;;;;;;;;;;;1035454;28;3970;-46
2022/04/25 00:19:06;;;;;;;;;;;;;;;;;;1036755;28;3692;-48
2022/04/25 00:19:36;;;;;;;;;;;;;;;;;;1037879;28;3820;-46
2022/04/25 00:20:08;;;;;;;;;;;;;;;;;;1039136;28;4224;-47
2022/04/25 00:20:38;;;;;;;;;;;;;;;;;;1036226;28;6214;-48
2022/04/25 00:21:08;;;;;;;;;;;;;;;;;;1036855;28;3792;-48
2022/04/25 00:21:39;;;;;;;;;;;;;;;;;;1033845;28;4150;-47
2022/04/25 00:22:09;;;;;;;;;;;;;;;;;;1031761;28;4048;-45
2022/04/25 00:22:39;;;;;;;;;;;;;;;;;;1035269;28;4546;-46
2022/04/25 00:23:10;;;;;;;;;;;;;;;;;;1035714;28;4330;-46
2022/04/25 00:23:40;;;;;;;;;;;;;;;;;;1035270;28;4390;-47
2022/04/25 00:24:11;;;;;;;;;;;;;;;;;;1040865;28;3684;-45
2022/04/25 00:24:44;;;;;;;;;;;;;;;;;;1035437;28;4311;-45
2022/04/25 00:25:15;;;;;;;;;;;;;;;;;;1035360;28;4389;-46
2022/04/25 00:25:45;;;;;;;;;;;;;;;;;;1035340;28;3587;-47
2022/04/25 00:26:15;;;;;;;;;;;;;;;;;;1035027;28;4113;-47
2022/04/25 00:26:46;;;;;;;;;;;;;;;;;;1038996;28;3551;-47
2022/04/25 00:27:16;;;;;;;;;;;;;;;;;;1037402;28;3957;-48
2022/04/25 00:27:46;;;;;;;;;;;;;;;;;;1038923;28;3659;-46
2022/04/25 00:28:17;;;;;;;;;;;;;;;;;;1030324;28;4259;-45
2022/04/25 00:28:47;;;;;;;;;;;;;;;;;;1027948;28;4395;-48
2022/04/25 00:29:17;;;;;;;;;;;;;;;;;;1027486;28;4313;-46
2022/04/25 00:29:48;;;;;;;;;;;;;;;;;;1028025;28;3989;-48
2022/04/25 00:30:18;;;;;;;;;;;;;;;;;;1031901;28;4792;-47
2022/04/25 00:30:48;;;;;;;;;;;;;;;;;;1038483;28;3654;-46
2022/04/25 00:31:19;;;;;;;;;;;;;;;;;;1036264;28;4094;-47
2022/04/25 00:31:49;;;;;;;;;;;;;;;;;;1037922;28;3709;-46
2022/04/25 00:32:19;;;;;;;;;;;;;;;;;;1038239;28;4032;-46
2022/04/25 00:32:50;;;;;;;;;;;;;;;;;;1039894;28;3907;-47
2022/04/25 00:33:20;;;;;;;;;;;;;;;;;;1037049;28;8012;-47
2022/04/25 00:33:50;;;;;;;;;;;;;;;;;;1040161;28;3766;-45
2022/04/25 00:34:21;;;;;;;;;;;;;;;;;;1038370;28;4962;-48
2022/04/25 00:34:52;;;;;;;;;;;;;;;;;;1038710;28;4226;-47
2022/04/25 00:35:22;;;;;;;;;;;;;;;;;;1038901;28;4006;-46
2022/04/25 00:35:53;;;;;;;;;;;;;;;;;;1038035;28;4218;-48
2022/04/25 00:36:23;;;;;;;;;;;;;;;;;;1039403;28;3881;-46
2022/04/25 00:36:53;;;;;;;;;;;;;;;;;;1039248;28;4181;-46
2022/04/25 00:37:23;;;;;;;;;;;;;;;;;;1038491;28;3797;-47
2022/04/25 00:37:54;;;;;;;;;;;;;;;;;;1039562;28;3638;-47
2022/04/25 00:38:24;;;;;;;;;;;;;;;;;;1040174;28;3787;-45
2022/04/25 00:38:55;;;;;;;;;;;;;;;;;;1040997;28;3659;-46
2022/04/25 00:39:25;;;;;;;;;;;;;;;;;;1040313;28;4057;-46
2022/04/25 00:39:55;;;;;;;;;;;;;;;;;;1032310;28;3604;-47
2022/04/25 00:40:26;;;;;;;;;;;;;;;;;;1031439;28;4515;-45
2022/04/25 00:40:56;;;;;;;;;;;;;;;;;;1033258;28;3475;-47
2022/04/25 00:41:26;;;;;;;;;;;;;;;;;;1032524;28;4207;-46
2022/04/25 00:41:57;;;;;;;;;;;;;;;;;;1039663;28;3467;-46
2022/04/25 00:42:27;;;;;;;;;;;;;;;;;;1038359;28;4238;-46
2022/04/25 00:42:57;;;;;;;;;;;;;;;;;;1043306;28;3811;-47
2022/04/25 00:43:28;;;;;;;;;;;;;;;;;;1042742;28;4139;-45
2022/04/25 00:43:59;;;;;;;;;;;;;;;;;;1043693;28;4010;-46
2022/04/25 00:44:29;;;;;;;;;;;;;;;;;;1042861;28;4408;-49
2022/04/25 00:44:59;;;;;;;;;;;;;;;;;;1041881;28;3752;-49
2022/04/25 00:45:33;;;;;;;;;;;;;;;;;;1039209;28;3773;-48
2022/04/25 00:46:04;;;;;;;;;;;;;;;;;;1038336;28;3725;-48
2022/04/25 00:46:35;;;;;;;;;;;;;;;;;;1036653;28;5072;-45
2022/04/25 00:47:06;;;;;;;;;;;;;;;;;;1034608;28;4160;-46
2022/04/25 00:47:37;;;;;;;;;;;;;;;;;;1036434;28;4102;-46
2022/04/25 00:48:07;;;;;;;;;;;;;;;;;;1035327;28;3708;-45
2022/04/25 00:48:37;;;;;;;;;;;;;;;;;;1035381;28;4025;-46
2022/04/25 00:49:08;;;;;;;;;;;;;;;;;;1039562;28;4021;-47
2022/04/25 00:49:38;;;;;;;;;;;;;;;;;;1038528;28;3960;-47
2022/04/25 00:50:09;;;;;;;;;;;;;;;;;;1039189;28;3790;-47
2022/04/25 00:50:40;;;;;;;;;;;;;;;;;;1039722;28;3871;-46
2022/04/25 00:51:11;;;;;;;;;;;;;;;;;;1039202;28;3557;-46
2022/04/25 00:51:42;;;;;;;;;;;;;;;;;;1041861;28;3743;-48
2022/04/25 00:52:26;;;;;;;;;;;;;;;;;;1040545;28;3897;-47
2022/04/25 00:53:03;;;;;;;;;;;;;;;;;;1040365;28;4162;-49
2022/04/25 00:53:34;;;;;;;;;;;;;;;;;;1036589;28;3816;-47
2022/04/25 00:54:04;;;;;;;;;;;;;;;;;;1035759;28;3578;-47
2022/04/25 00:54:35;;;;;;;;;;;;;;;;;;1034379;28;3852;-45
2022/04/25 00:55:08;;;;;;;;;;;;;;;;;;1034963;28;3827;-47
2022/04/25 00:55:38;;;;;;;;;;;;;;;;;;1034339;28;4425;-47
2022/04/25 00:56:09;;;;;;;;;;;;;;;;;;1035710;28;3550;-45
2022/04/25 00:56:39;;;;;;;;;;;;;;;;;;1035251;28;3975;-47
2022/04/25 00:57:10;;;;;;;;;;;;;;;;;;1036001;28;4410;-44
2022/04/25 00:57:41;;;;;;;;;;;;;;;;;;1036222;28;3920;-48
2022/04/25 00:58:13;;;;;;;;;;;;;;;;;;1039691;28;5974;-45
2022/04/25 00:58:44;;;;;;;;;;;;;;;;;;1036849;28;3761;-47
2022/04/25 00:59:16;;;;;;;;;;;;;;;;;;1037330;28;4087;-46
2022/04/25 00:59:47;;;;;;;;;;;;;;;;;;1035340;28;3519;-46
2022/04/25 01:00:17;;;;;;;;;;;;;;;;;;1032240;28;4134;-46
2022/04/25 01:00:48;;;;;;;;;;;;;;;;;;1035919;28;3789;-46
2022/04/25 01:01:19;;;;;;;;;;;;;;;;;;1034956;28;3810;-48
2022/04/25 01:01:51;;;;;;;;;;;;;;;;;;1035622;28;3669;-47
2022/04/25 01:02:21;;;;;;;;;;;;;;;;;;1034244;28;4014;-48
2022/04/25 01:02:52;;;;;;;;;;;;;;;;;;1036334;28;3699;-50
2022/04/25 01:03:22;;;;;;;;;;;;;;;;;;1035229;28;4210;-46
2022/04/25 01:03:52;;;;;;;;;;;;;;;;;;1034784;28;3502;-46
2022/04/25 01:04:22;;;;;;;;;;;;;;;;;;1034495;28;4100;-48
2022/04/25 01:04:56;;;;;;;;;;;;;;;;;;1034597;28;4114;-48
2022/04/25 01:05:26;;;;;;;;;;;;;;;;;;1035403;28;3914;-49
2022/04/25 01:05:56;;;;;;;;;;;;;;;;;;1033844;28;5244;-46
2022/04/25 01:06:27;;;;;;;;;;;;;;;;;;1034461;28;3954;-47
2022/04/25 01:06:58;;;;;;;;;;;;;;;;;;1033939;28;3444;-45
2022/04/25 01:07:28;;;;;;;;;;;;;;;;;;1035241;28;4441;-47
2022/04/25 01:07:59;;;;;;;;;;;;;;;;;;1034453;28;3907;-48
2022/04/25 01:08:33;;;;;;;;;;;;;;;;;;1034902;28;4017;-46
2022/04/25 01:09:03;;;;;;;;;;;;;;;;;;1034849;28;3623;-45
2022/04/25 01:09:33;;;;;;;;;;;;;;;;;;1034251;28;3880;-46
2022/04/25 01:10:05;;;;;;;;;;;;;;;;;;1034352;28;4102;-48
2022/04/25 01:10:35;;;;;;;;;;;;;;;;;;1035363;28;4010;-49
2022/04/25 01:11:05;;;;;;;;;;;;;;;;;;1034805;28;3873;-46
2022/04/25 01:11:36;;;;;;;;;;;;;;;;;;1036150;28;3979;-46
2022/04/25 01:12:06;;;;;;;;;;;;;;;;;;1034281;28;3983;-48
2022/04/25 01:12:44;;;;;;;;;;;;;;;;;;1037702;28;5152;-48
2022/04/25 01:13:14;;;;;;;;;;;;;;;;;;1031009;28;4423;-47
2022/04/25 01:13:44;;;;;;;;;;;;;;;;;;1032008;28;3656;-49
2022/04/25 01:14:16;;;;;;;;;;;;;;;;;;1031771;28;3992;-45
2022/04/25 01:14:46;;;;;;;;;;;;;;;;;;1031381;28;4871;-47
2022/04/25 01:15:16;;;;;;;;;;;;;;;;;;1035061;28;3793;-47
2022/04/25 01:15:46;;;;;;;;;;;;;;;;;;1034609;28;3626;-49
2022/04/25 01:16:17;;;;;;;;;;;;;;;;;;1036300;28;4746;-45
2022/04/25 01:16:50;;;;;;;;;;;;;;;;;;1036358;28;4144;-48
2022/04/25 01:17:21;;;;;;;;;;;;;;;;;;1035960;28;4050;-48
2022/04/25 01:17:51;;;;;;;;;;;;;;;;;;1034752;28;3536;-45
2022/04/25 01:18:21;;;;;;;;;;;;;;;;;;1035118;28;4456;-46
2022/04/25 01:18:51;;;;;;;;;;;;;;;;;;1034355;28;6402;-46
2022/04/25 01:19:21;;;;;;;;;;;;;;;;;;1035672;28;3954;-47
2022/04/25 01:19:52;;;;;;;;;;;;;;;;;;1033785;28;3553;-45
2022/04/25 01:20:22;;;;;;;;;;;;;;;;;;1036029;28;4392;-47
2022/04/25 01:20:55;;;;;;;;;;;;;;;;;;1035768;28;3545;-45
2022/04/25 01:21:27;;;;;;;;;;;;;;;;;;1035511;28;3998;-49
2022/04/25 01:22:06;;;;;;;;;;;;;;;;;;1035420;28;4063;-51
2022/04/25 01:22:42;;;;;;;;;;;;;;;;;;1032564;28;6392;-46
2022/04/25 01:27:23;;;;;;;;;;;;;;;;;;1034143;28;4526;-47
2022/04/25 01:27:53;;;;;;;;;;;;;;;;;;1033434;28;3976;-45
2022/04/25 01:28:23;;;;;;;;;;;;;;;;;;1034387;28;3948;-46
2022/04/25 01:28:54;;;;;;;;;;;;;;;;;;1034378;28;5063;-46
2022/04/25 01:29:24;;;;;;;;;;;;;;;;;;1034375;28;4232;-47
2022/04/25 01:29:55;;;;;;;;;;;;;;;;;;1039030;28;3568;-46
2022/04/25 01:30:25;;;;;;;;;;;;;;;;;;1039063;28;4207;-46
2022/04/25 01:30:55;;;;;;;;;;;;;;;;;;1037909;28;4284;-46
2022/04/25 01:31:25;;;;;;;;;;;;;;;;;;1039723;28;3875;-45
2022/04/25 01:31:56;;;;;;;;;;;;;;;;;;1034914;28;3636;-48
2022/04/25 01:32:26;;;;;;;;;;;;;;;;;;1036188;28;4717;-45
2022/04/25 01:32:56;;;;;;;;;;;;;;;;;;1034976;28;3672;-48
2022/04/25 01:33:27;;;;;;;;;;;;;;;;;;1034697;28;6664;-47
2022/04/25 01:33:57;;;;;;;;;;;;;;;;;;1035279;28;3778;-47
2022/04/25 01:34:29;;;;;;;;;;;;;;;;;;1038875;28;4410;-48
2022/04/25 01:34:59;;;;;;;;;;;;;;;;;;1044464;28;3791;-48
2022/04/25 01:35:29;;;;;;;;;;;;;;;;;;1040312;28;4457;-45
2022/04/25 01:36:00;;;;;;;;;;;;;;;;;;1042325;28;5334;-45
2022/04/25 01:36:31;;;;;;;;;;;;;;;;;;1037037;28;4232;-47
2022/04/25 01:37:02;;;;;;;;;;;;;;;;;;1037735;28;3996;-45
2022/04/25 01:37:32;;;;;;;;;;;;;;;;;;1033596;28;4232;-47
2022/04/25 01:38:04;;;;;;;;;;;;;;;;;;1037297;28;3637;-47
2022/04/25 01:38:34;;;;;;;;;;;;;;;;;;1035186;28;3884;-45
2022/04/25 01:39:05;;;;;;;;;;;;;;;;;;1037059;28;3623;-48
2022/04/25 01:39:35;;;;;;;;;;;;;;;;;;1034410;28;4054;-48
2022/04/25 01:40:06;;;;;;;;;;;;;;;;;;1038864;28;3763;-46
2022/04/25 01:40:36;;;;;;;;;;;;;;;;;;1034205;28;4065;-45
2022/04/25 01:41:06;;;;;;;;;;;;;;;;;;1035519;28;4819;-47
2022/04/25 01:41:37;;;;;;;;;;;;;;;;;;1034661;28;4675;-46
2022/04/25 01:42:07;;;;;;;;;;;;;;;;;;1034114;28;3995;-47
2022/04/25 01:42:38;;;;;;;;;;;;;;;;;;1037000;28;4071;-48
2022/04/25 01:43:08;;;;;;;;;;;;;;;;;;1035982;28;4123;-46
2022/04/25 01:43:38;;;;;;;;;;;;;;;;;;1035111;28;3777;-48
2022/04/25 01:44:08;;;;;;;;;;;;;;;;;;1034892;28;3576;-47
2022/04/25 01:44:39;;;;;;;;;;;;;;;;;;1037592;28;6737;-46
2022/04/25 01:45:10;;;;;;;;;;;;;;;;;;1038510;28;3665;-47
2022/04/25 01:45:40;;;;;;;;;;;;;;;;;;1037245;28;3959;-46
2022/04/25 01:46:11;;;;;;;;;;;;;;;;;;1037201;28;3661;-47
2022/04/25 01:46:42;;;;;;;;;;;;;;;;;;1032325;28;3976;-47
2022/04/25 01:47:12;;;;;;;;;;;;;;;;;;1035072;28;3909;-46
2022/04/25 01:47:44;;;;;;;;;;;;;;;;;;1035223;28;3758;-45
2022/04/25 01:48:14;;;;;;;;;;;;;;;;;;1033831;28;3916;-47
2022/04/25 01:48:45;;;;;;;;;;;;;;;;;;1035069;28;3627;-47
2022/04/25 01:49:15;;;;;;;;;;;;;;;;;;1035034;28;4210;-46
2022/04/25 01:49:45;;;;;;;;;;;;;;;;;;1035800;28;3817;-48
2022/04/25 01:50:15;;;;;;;;;;;;;;;;;;1034485;28;4306;-49
2022/04/25 01:50:46;;;;;;;;;;;;;;;;;;1034115;28;3593;-47
2022/04/25 01:51:16;;;;;;;;;;;;;;;;;;1035659;28;4105;-47
2022/04/25 01:51:47;;;;;;;;;;;;;;;;;;1034363;28;3589;-48
2022/04/25 01:52:37;;;;;;;;;;;;;;;;;;1037927;28;3987;-46
2022/04/25 01:53:14;;;;;;;;;;;;;;;;;;1037658;28;3920;-46
2022/04/25 01:53:44;;;;;;;;;;;;;;;;;;1039408;28;3471;-45
2022/04/25 01:54:18;;;;;;;;;;;;;;;;;;1033147;28;4024;-46
2022/04/25 01:54:48;;;;;;;;;;;;;;;;;;1034722;28;5621;-45
2022/04/25 01:55:19;;;;;;;;;;;;;;;;;;1032953;28;4917;-44
2022/04/25 01:55:49;;;;;;;;;;;;;;;;;;1034463;28;3626;-47
2022/04/25 01:56:20;;;;;;;;;;;;;;;;;;1031910;28;4026;-44
2022/04/25 01:56:51;;;;;;;;;;;;;;;;;;1033207;28;4226;-44
2022/04/25 01:57:21;;;;;;;;;;;;;;;;;;1032043;28;3957;-45
2022/04/25 01:57:51;;;;;;;;;;;;;;;;;;1034769;28;4398;-44
2022/04/25 01:58:22;;;;;;;;;;;;;;;;;;1035963;28;3888;-45
2022/04/25 01:58:52;;;;;;;;;;;;;;;;;;1033735;28;3496;-46
2022/04/25 01:59:23;;;;;;;;;;;;;;;;;;1033311;28;4261;-43
2022/04/25 01:59:53;;;;;;;;;;;;;;;;;;1034693;28;4014;-45
2022/04/25 02:00:23;;;;;;;;;;;;;;;;;;1034035;28;4108;-44
2022/04/25 02:00:55;;;;;;;;;;;;;;;;;;1033572;28;3506;-49
2022/04/25 02:01:25;;;;;;;;;;;;;;;;;;1032932;28;4813;-46
2022/04/25 02:01:55;;;;;;;;;;;;;;;;;;1037686;28;3800;-46
2022/04/25 02:02:25;;;;;;;;;;;;;;;;;;1037647;28;5186;-47
2022/04/25 02:02:56;;;;;;;;;;;;;;;;;;1034651;28;3964;-44
2022/04/25 02:03:26;;;;;;;;;;;;;;;;;;1036175;28;3962;-46
2022/04/25 02:03:56;;;;;;;;;;;;;;;;;;1034169;28;4799;-47
2022/04/25 02:04:26;;;;;;;;;;;;;;;;;;1033882;28;3870;-44
2022/04/25 02:04:57;;;;;;;;;;;;;;;;;;1035955;28;3567;-45
2022/04/25 02:05:27;;;;;;;;;;;;;;;;;;1034884;28;4411;-45
2022/04/25 02:05:57;;;;;;;;;;;;;;;;;;1034986;28;3535;-45
2022/04/25 02:06:28;;;;;;;;;;;;;;;;;;1034226;28;3894;-43
2022/04/25 02:06:59;;;;;;;;;;;;;;;;;;1034848;28;3568;-44
2022/04/25 02:07:29;;;;;;;;;;;;;;;;;;1033923;28;4116;-45
2022/04/25 02:08:00;;;;;;;;;;;;;;;;;;1035528;28;3567;-44
2022/04/25 02:08:30;;;;;;;;;;;;;;;;;;1034014;28;4753;-43
2022/04/25 02:09:00;;;;;;;;;;;;;;;;;;1035721;28;4117;-45
2022/04/25 02:09:30;;;;;;;;;;;;;;;;;;1033889;28;3884;-44
2022/04/25 02:10:02;;;;;;;;;;;;;;;;;;1034274;28;3718;-46
2022/04/25 02:10:32;;;;;;;;;;;;;;;;;;1033902;28;3988;-45
2022/04/25 02:11:21;;;;;;;;;;;;;;;;;;1034658;28;3808;-43
2022/04/25 02:11:52;;;;;;;;;;;;;;;;;;1035268;28;3886;-46
2022/04/25 02:12:22;;;;;;;;;;;;;;;;;;1034545;28;4460;-44
2022/04/25 02:12:59;;;;;;;;;;;;;;;;;;1034937;28;3714;-45
2022/04/25 02:13:30;;;;;;;;;;;;;;;;;;1033609;28;4045;-45
2022/04/25 02:14:00;;;;;;;;;;;;;;;;;;1034264;28;3525;-45
2022/04/25 02:14:30;;;;;;;;;;;;;;;;;;1033996;28;3929;-44
2022/04/25 02:15:01;;;;;;;;;;;;;;;;;;1035472;28;3521;-47
2022/04/25 02:15:31;;;;;;;;;;;;;;;;;;1033324;28;3803;-43
2022/04/25 02:16:03;;;;;;;;;;;;;;;;;;1035092;28;3695;-45
2022/04/25 02:16:34;;;;;;;;;;;;;;;;;;1034217;28;3845;-45
2022/04/25 02:17:04;;;;;;;;;;;;;;;;;;1033179;28;4307;-46
2022/04/25 02:17:34;;;;;;;;;;;;;;;;;;1035527;28;4224;-46
2022/04/25 02:18:05;;;;;;;;;;;;;;;;;;1033780;28;3663;-48
2022/04/25 02:18:35;;;;;;;;;;;;;;;;;;1036058;28;3906;-45
2022/04/25 02:19:06;;;;;;;;;;;;;;;;;;1035433;28;3705;-46
2022/04/25 02:19:38;;;;;;;;;;;;;;;;;;1034813;28;3916;-44
2022/04/25 02:20:10;;;;;;;;;;;;;;;;;;1033701;28;3514;-44
2022/04/25 02:20:41;;;;;;;;;;;;;;;;;;1035014;28;3793;-44
2022/04/25 02:21:12;;;;;;;;;;;;;;;;;;1035131;28;3771;-44
2022/04/25 02:21:42;;;;;;;;;;;;;;;;;;1034356;28;3505;-44
2022/04/25 02:22:13;;;;;;;;;;;;;;;;;;1033767;28;3773;-48
2022/04/25 02:22:43;;;;;;;;;;;;;;;;;;1034095;28;4823;-46
2022/04/25 02:23:13;;;;;;;;;;;;;;;;;;1034804;28;4333;-46
2022/04/25 02:23:44;;;;;;;;;;;;;;;;;;1034643;28;3536;-48
2022/04/25 02:24:14;;;;;;;;;;;;;;;;;;1034945;28;4106;-49
2022/04/25 02:24:45;;;;;;;;;;;;;;;;;;1037265;28;3704;-45
2022/04/25 02:25:16;;;;;;;;;;;;;;;;;;1037314;28;4249;-47
2022/04/25 02:25:46;;;;;;;;;;;;;;;;;;1037101;28;3853;-46
2022/04/25 02:26:16;;;;;;;;;;;;;;;;;;1037955;28;4311;-46
2022/04/25 02:26:48;;;;;;;;;;;;;;;;;;1033999;28;6033;-44
2022/04/25 02:27:18;;;;;;;;;;;;;;;;;;1038099;28;3957;-46
2022/04/25 02:27:48;;;;;;;;;;;;;;;;;;1037511;28;3873;-44
2022/04/25 02:28:19;;;;;;;;;;;;;;;;;;1037672;28;4278;-44
2022/04/25 02:28:49;;;;;;;;;;;;;;;;;;1038388;28;3740;-46
2022/04/25 02:29:20;;;;;;;;;;;;;;;;;;1034417;28;4110;-45
2022/04/25 02:29:53;;;;;;;;;;;;;;;;;;1034803;28;4380;-46
2022/04/25 02:30:24;;;;;;;;;;;;;;;;;;1034888;28;4049;-46
2022/04/25 02:30:54;;;;;;;;;;;;;;;;;;1034121;28;4891;-45
2022/04/25 02:31:24;;;;;;;;;;;;;;;;;;1036388;28;3803;-45
2022/04/25 02:31:55;;;;;;;;;;;;;;;;;;1036696;28;3480;-44
2022/04/25 02:32:27;;;;;;;;;;;;;;;;;;1032547;28;3880;-45
2022/04/25 02:32:58;;;;;;;;;;;;;;;;;;1035503;28;4123;-46
2022/04/25 02:33:29;;;;;;;;;;;;;;;;;;1033968;28;4127;-46
2022/04/25 02:33:59;;;;;;;;;;;;;;;;;;1034773;28;4148;-47
2022/04/25 02:34:31;;;;;;;;;;;;;;;;;;1033846;28;4355;-47
2022/04/25 02:35:01;;;;;;;;;;;;;;;;;;1035078;28;3812;-45
2022/04/25 02:35:31;;;;;;;;;;;;;;;;;;1033804;28;3901;-44
2022/04/25 02:36:04;;;;;;;;;;;;;;;;;;1034423;28;3543;-43
2022/04/25 02:36:35;;;;;;;;;;;;;;;;;;1031385;28;4598;-47
2022/04/25 02:37:06;;;;;;;;;;;;;;;;;;1032254;28;3498;-44
2022/04/25 02:37:36;;;;;;;;;;;;;;;;;;1031684;28;4233;-45
2022/04/25 02:38:07;;;;;;;;;;;;;;;;;;1037077;28;3787;-46
2022/04/25 02:38:37;;;;;;;;;;;;;;;;;;1041534;28;4030;-46
2022/04/25 02:39:08;;;;;;;;;;;;;;;;;;1044115;28;3680;-43
2022/04/25 02:39:44;;;;;;;;;;;;;;;;;;1040375;28;3822;-44
2022/04/25 02:40:15;;;;;;;;;;;;;;;;;;1034812;28;4458;-44
2022/04/25 02:40:45;;;;;;;;;;;;;;;;;;1035317;28;3877;-44
2022/04/25 02:41:15;;;;;;;;;;;;;;;;;;1033053;28;4313;-44
2022/04/25 02:41:46;;;;;;;;;;;;;;;;;;1036144;28;3756;-46
2022/04/25 02:42:16;;;;;;;;;;;;;;;;;;1034059;28;4115;-44
2022/04/25 02:42:46;;;;;;;;;;;;;;;;;;1037946;28;3616;-45
2022/04/25 02:43:17;;;;;;;;;;;;;;;;;;1036959;28;4011;-45
2022/04/25 02:43:48;;;;;;;;;;;;;;;;;;1035816;28;3783;-44
2022/04/25 02:44:18;;;;;;;;;;;;;;;;;;1034560;28;6092;-49
2022/04/25 02:44:48;;;;;;;;;;;;;;;;;;1036207;28;3939;-45
2022/04/25 02:45:18;;;;;;;;;;;;;;;;;;1034337;28;4906;-44
2022/04/25 02:45:49;;;;;;;;;;;;;;;;;;1037495;28;3653;-44
2022/04/25 02:46:19;;;;;;;;;;;;;;;;;;1033734;28;3907;-44
2022/04/25 02:46:49;;;;;;;;;;;;;;;;;;1035647;28;4553;-43
2022/04/25 02:47:19;;;;;;;;;;;;;;;;;;1035732;28;3875;-45
2022/04/25 02:47:50;;;;;;;;;;;;;;;;;;1034918;28;3493;-46
2022/04/25 02:48:21;;;;;;;;;;;;;;;;;;1032556;28;4009;-44
2022/04/25 02:48:51;;;;;;;;;;;;;;;;;;1036236;28;4233;-44
2022/04/25 02:49:21;;;;;;;;;;;;;;;;;;1030857;28;4163;-44
2022/04/25 02:49:51;;;;;;;;;;;;;;;;;;1035518;28;3672;-44
2022/04/25 02:50:22;;;;;;;;;;;;;;;;;;1033835;28;3880;-45
2022/04/25 02:50:52;;;;;;;;;;;;;;;;;;1036085;28;3670;-43
2022/04/25 02:51:23;;;;;;;;;;;;;;;;;;1032807;28;3896;-45
2022/04/25 02:51:53;;;;;;;;;;;;;;;;;;1035378;28;3549;-45
2022/04/25 02:52:37;;;;;;;;;;;;;;;;;;1034727;28;4496;-45
2022/04/25 02:53:14;;;;;;;;;;;;;;;;;;1039482;28;3928;-45
2022/04/25 02:53:45;;;;;;;;;;;;;;;;;;1038908;28;3725;-45
2022/04/25 02:54:15;;;;;;;;;;;;;;;;;;1038380;28;4110;-46
2022/04/25 02:54:45;;;;;;;;;;;;;;;;;;1036220;28;3674;-44
2022/04/25 02:55:15;;;;;;;;;;;;;;;;;;1035455;28;4251;-43
2022/04/25 02:55:46;;;;;;;;;;;;;;;;;;1036603;28;3670;-44
2022/04/25 02:56:16;;;;;;;;;;;;;;;;;;1035304;28;3897;-46
2022/04/25 02:56:47;;;;;;;;;;;;;;;;;;1039082;28;4168;-45
2022/04/25 02:57:17;;;;;;;;;;;;;;;;;;1036980;28;3882;-45
2022/04/25 02:57:48;;;;;;;;;;;;;;;;;;1040037;28;4179;-46
2022/04/25 02:58:19;;;;;;;;;;;;;;;;;;1037883;28;6575;-45
2022/04/25 02:58:50;;;;;;;;;;;;;;;;;;1042687;28;3641;-45
2022/04/25 02:59:20;;;;;;;;;;;;;;;;;;1042387;28;4370;-44
2022/04/25 02:59:51;;;;;;;;;;;;;;;;;;1044165;28;3708;-44
2022/04/25 03:00:21;;;;;;;;;;;;;;;;;;1042494;28;5293;-44
2022/04/25 03:00:52;;;;;;;;;;;;;;;;;;1037840;28;3836;-45
2022/04/25 03:01:22;;;;;;;;;;;;;;;;;;1038711;28;3947;-43
2022/04/25 03:01:52;;;;;;;;;;;;;;;;;;1038359;28;3900;-45
2022/04/25 03:02:23;;;;;;;;;;;;;;;;;;1037980;28;3873;-45
2022/04/25 03:02:53;;;;;;;;;;;;;;;;;;1039147;28;4127;-45
2022/04/25 03:03:24;;;;;;;;;;;;;;;;;;1037472;28;4230;-47
2022/04/25 03:03:54;;;;;;;;;;;;;;;;;;1038946;28;3712;-48
2022/04/25 03:04:25;;;;;;;;;;;;;;;;;;1037305;28;4038;-46
2022/04/25 03:04:55;;;;;;;;;;;;;;;;;;1036741;28;3948;-45
2022/04/25 03:05:25;;;;;;;;;;;;;;;;;;1038136;28;4003;-46
2022/04/25 03:05:56;;;;;;;;;;;;;;;;;;1038989;28;4007;-45
2022/04/25 03:06:26;;;;;;;;;;;;;;;;;;1038770;28;4078;-48
2022/04/25 03:06:57;;;;;;;;;;;;;;;;;;1039552;28;3558;-43
2022/04/25 03:07:27;;;;;;;;;;;;;;;;;;1037275;28;4011;-46
2022/04/25 03:07:58;;;;;;;;;;;;;;;;;;1039336;28;3555;-43
2022/04/25 03:08:28;;;;;;;;;;;;;;;;;;1037151;28;3771;-44
2022/04/25 03:08:59;;;;;;;;;;;;;;;;;;1039520;28;3838;-44
2022/04/25 03:09:29;;;;;;;;;;;;;;;;;;1038007;28;4352;-45
2022/04/25 03:09:59;;;;;;;;;;;;;;;;;;1039633;28;3645;-47
2022/04/25 03:10:29;;;;;;;;;;;;;;;;;;1038359;28;4088;-44
2022/04/25 03:11:01;;;;;;;;;;;;;;;;;;1037111;28;3971;-45
2022/04/25 03:11:34;;;;;;;;;;;;;;;;;;1035028;28;4232;-46
2022/04/25 03:12:05;;;;;;;;;;;;;;;;;;1034487;28;3944;-44
2022/04/25 03:12:38;;;;;;;;;;;;;;;;;;1037460;28;4609;-44
2022/04/25 03:13:09;;;;;;;;;;;;;;;;;;1031993;28;3611;-48
2022/04/25 03:13:40;;;;;;;;;;;;;;;;;;1034354;28;5247;-43
2022/04/25 03:14:10;;;;;;;;;;;;;;;;;;1033898;28;4442;-44
2022/04/25 03:14:40;;;;;;;;;;;;;;;;;;1031915;28;4205;-45
2022/04/25 03:15:11;;;;;;;;;;;;;;;;;;1038445;28;4229;-44
2022/04/25 03:15:42;;;;;;;;;;;;;;;;;;1039468;28;4362;-44
2022/04/25 03:16:12;;;;;;;;;;;;;;;;;;1037352;28;4075;-44
2022/04/25 03:16:43;;;;;;;;;;;;;;;;;;1040264;28;3525;-46
2022/04/25 03:17:13;;;;;;;;;;;;;;;;;;1038638;28;3915;-47
2022/04/25 03:17:44;;;;;;;;;;;;;;;;;;1038932;28;4127;-44
2022/04/25 03:18:15;;;;;;;;;;;;;;;;;;1040120;28;4219;-44
2022/04/25 03:18:46;;;;;;;;;;;;;;;;;;1038034;28;3667;-44
2022/04/25 03:19:17;;;;;;;;;;;;;;;;;;1039498;28;4048;-48
2022/04/25 03:19:47;;;;;;;;;;;;;;;;;;1039173;28;4066;-46
2022/04/25 03:20:18;;;;;;;;;;;;;;;;;;1039617;28;3836;-44
2022/04/25 03:20:50;;;;;;;;;;;;;;;;;;1039409;28;3579;-45
2022/04/25 03:21:20;;;;;;;;;;;;;;;;;;1038841;28;4929;-44
2022/04/25 03:21:51;;;;;;;;;;;;;;;;;;1039049;28;4151;-46
2022/04/25 03:22:21;;;;;;;;;;;;;;;;;;1038899;28;3922;-44
2022/04/25 03:22:52;;;;;;;;;;;;;;;;;;1040599;28;3526;-46
2022/04/25 03:23:23;;;;;;;;;;;;;;;;;;1040375;28;3968;-45
2022/04/25 03:23:53;;;;;;;;;;;;;;;;;;1039041;28;3518;-46
2022/04/25 03:24:23;;;;;;;;;;;;;;;;;;1039971;28;3860;-46
2022/04/25 03:24:54;;;;;;;;;;;;;;;;;;1037900;28;4028;-47
2022/04/25 03:25:24;;;;;;;;;;;;;;;;;;1039348;28;4118;-45
2022/04/25 03:25:55;;;;;;;;;;;;;;;;;;1037212;28;3598;-46
2022/04/25 03:26:25;;;;;;;;;;;;;;;;;;1035315;28;3906;-47
2022/04/25 03:26:55;;;;;;;;;;;;;;;;;;1034569;28;4912;-45
2022/04/25 03:27:25;;;;;;;;;;;;;;;;;;1034110;28;4570;-47
2022/04/25 03:27:56;;;;;;;;;;;;;;;;;;1036109;28;3551;-44
2022/04/25 03:28:26;;;;;;;;;;;;;;;;;;1038133;28;4140;-45
2022/04/25 03:28:56;;;;;;;;;;;;;;;;;;1040324;28;3470;-43
2022/04/25 03:29:27;;;;;;;;;;;;;;;;;;1040765;28;3846;-46
2022/04/25 03:29:57;;;;;;;;;;;;;;;;;;1039738;28;3650;-46
2022/04/25 03:30:28;;;;;;;;;;;;;;;;;;1039361;28;3919;-48
2022/04/25 03:30:58;;;;;;;;;;;;;;;;;;1039914;28;3457;-44
2022/04/25 03:31:29;;;;;;;;;;;;;;;;;;1039560;28;3880;-47
2022/04/25 03:31:59;;;;;;;;;;;;;;;;;;1039768;28;3635;-45
2022/04/25 03:32:29;;;;;;;;;;;;;;;;;;1037626;28;4379;-45
2022/04/25 03:33:00;;;;;;;;;;;;;;;;;;1039660;28;4122;-45
2022/04/25 03:33:31;;;;;;;;;;;;;;;;;;1040165;28;4338;-46
2022/04/25 03:34:01;;;;;;;;;;;;;;;;;;1041022;28;3645;-43
2022/04/25 03:34:32;;;;;;;;;;;;;;;;;;1037846;28;4096;-44
2022/04/25 03:35:03;;;;;;;;;;;;;;;;;;1038886;28;4765;-47
2022/04/25 03:35:34;;;;;;;;;;;;;;;;;;1040880;28;7047;-46
2022/04/25 03:36:05;;;;;;;;;;;;;;;;;;1043646;28;4046;-45
2022/04/25 03:36:35;;;;;;;;;;;;;;;;;;1039355;28;4886;-46
2022/04/25 03:37:06;;;;;;;;;;;;;;;;;;1040306;28;3445;-44
2022/04/25 03:37:37;;;;;;;;;;;;;;;;;;1035488;28;4074;-45
2022/04/25 03:38:14;;;;;;;;;;;;;;;;;;1037106;28;3916;-48
2022/04/25 03:38:44;;;;;;;;;;;;;;;;;;1036394;28;3675;-45